sensor_id;sensor_type;location;lat;lon;timestamp;P1;durP1;ratioP1;P2;durP2;ratioP2
60665;SDS011;59128;44.642;21.188;2023-03-01T00:01:25;35.20;;;25.92;;
60665;SDS011;59128;44.642;21.188;2023-03-01T00:03:51;56.65;;;44.88;;
60665;SDS011;59128;44.642;21.188;2023-03-01T00:06:17;53.40;;;41.20;;
60665;SDS011;59128;44.642;21.188;2023-03-01T00:08:44;28.30;;;21.83;;
60665;SDS011;59128;44.642;21.188;2023-03-01T00:11:11;15.90;;;12.63;;
60665;SDS011;59128;44.642;21.188;2023-03-01T00:13:38;13.97;;;12.07;;
60665;SDS011;59128;44.642;21.188;2023-03-01T00:16:05;12.05;;;10.80;;
60665;SDS011;59128;44.642;21.188;2023-03-01T00:18:31;12.77;;;11.43;;
60665;SDS011;59128;44.642;21.188;2023-03-01T00:20:57;21.40;;;17.87;;
60665;SDS011;59128;44.642;21.188;2023-03-01T00:23:23;17.92;;;16.02;;
60665;SDS011;59128;44.642;21.188;2023-03-01T00:25:49;14.43;;;12.93;;
60665;SDS011;59128;44.642;21.188;2023-03-01T00:28:16;15.27;;;13.68;;
60665;SDS011;59128;44.642;21.188;2023-03-01T00:30:42;19.48;;;16.75;;
60665;SDS011;59128;44.642;21.188;2023-03-01T00:33:08;12.20;;;10.93;;
60665;SDS011;59128;44.642;21.188;2023-03-01T00:35:34;13.77;;;12.00;;
60665;SDS011;59128;44.642;21.188;2023-03-01T00:38:00;26.50;;;23.23;;
60665;SDS011;59128;44.642;21.188;2023-03-01T00:40:27;17.38;;;15.57;;
60665;SDS011;59128;44.642;21.188;2023-03-01T00:42:54;15.68;;;13.77;;
60665;SDS011;59128;44.642;21.188;2023-03-01T00:45:20;24.48;;;17.73;;
60665;SDS011;59128;44.642;21.188;2023-03-01T00:47:46;10.10;;;8.75;;
60665;SDS011;59128;44.642;21.188;2023-03-01T00:50:13;19.08;;;16.45;;
60665;SDS011;59128;44.642;21.188;2023-03-01T00:52:39;13.48;;;11.20;;
60665;SDS011;59128;44.642;21.188;2023-03-01T00:55:05;17.52;;;12.93;;
60665;SDS011;59128;44.642;21.188;2023-03-01T00:57:31;13.55;;;11.80;;
60665;SDS011;59128;44.642;21.188;2023-03-01T00:59:58;16.77;;;12.90;;
60665;SDS011;59128;44.642;21.188;2023-03-01T01:02:24;22.73;;;14.23;;
60665;SDS011;59128;44.642;21.188;2023-03-01T01:04:50;18.52;;;13.10;;
60665;SDS011;59128;44.642;21.188;2023-03-01T01:07:16;20.13;;;13.98;;
60665;SDS011;59128;44.642;21.188;2023-03-01T01:09:42;21.60;;;15.10;;
60665;SDS011;59128;44.642;21.188;2023-03-01T01:12:08;18.08;;;13.60;;
60665;SDS011;59128;44.642;21.188;2023-03-01T01:14:35;17.25;;;12.43;;
60665;SDS011;59128;44.642;21.188;2023-03-01T01:17:01;17.05;;;12.60;;
60665;SDS011;59128;44.642;21.188;2023-03-01T01:19:27;17.40;;;13.48;;
60665;SDS011;59128;44.642;21.188;2023-03-01T01:21:53;15.63;;;12.65;;
60665;SDS011;59128;44.642;21.188;2023-03-01T01:24:19;13.93;;;11.52;;
60665;SDS011;59128;44.642;21.188;2023-03-01T01:26:45;11.47;;;10.20;;
60665;SDS011;59128;44.642;21.188;2023-03-01T01:29:11;13.18;;;10.20;;
60665;SDS011;59128;44.642;21.188;2023-03-01T01:31:38;11.82;;;9.95;;
60665;SDS011;59128;44.642;21.188;2023-03-01T01:34:05;10.15;;;8.88;;
60665;SDS011;59128;44.642;21.188;2023-03-01T01:36:33;12.15;;;10.13;;
60665;SDS011;59128;44.642;21.188;2023-03-01T01:38:59;11.43;;;9.32;;
60665;SDS011;59128;44.642;21.188;2023-03-01T01:41:26;13.32;;;10.98;;
60665;SDS011;59128;44.642;21.188;2023-03-01T01:44:12;8.70;;;7.70;;
60665;SDS011;59128;44.642;21.188;2023-03-01T01:46:45;9.30;;;7.93;;
60665;SDS011;59128;44.642;21.188;2023-03-01T01:51:42;9.82;;;7.70;;
60665;SDS011;59128;44.642;21.188;2023-03-01T01:54:14;9.10;;;8.17;;
60665;SDS011;59128;44.642;21.188;2023-03-01T01:56:42;9.38;;;7.90;;
60665;SDS011;59128;44.642;21.188;2023-03-01T01:59:09;9.68;;;7.57;;
60665;SDS011;59128;44.642;21.188;2023-03-01T02:01:36;9.55;;;7.70;;
60665;SDS011;59128;44.642;21.188;2023-03-01T02:04:03;8.15;;;7.20;;
60665;SDS011;59128;44.642;21.188;2023-03-01T02:06:32;9.23;;;7.50;;
60665;SDS011;59128;44.642;21.188;2023-03-01T02:09:04;9.93;;;7.93;;
60665;SDS011;59128;44.642;21.188;2023-03-01T02:11:32;9.90;;;8.88;;
60665;SDS011;59128;44.642;21.188;2023-03-01T02:13:59;10.75;;;9.25;;
60665;SDS011;59128;44.642;21.188;2023-03-01T02:16:25;14.52;;;10.75;;
60665;SDS011;59128;44.642;21.188;2023-03-01T02:18:51;14.50;;;11.45;;
60665;SDS011;59128;44.642;21.188;2023-03-01T02:22:19;17.60;;;13.80;;
60665;SDS011;59128;44.642;21.188;2023-03-01T02:24:33;18.33;;;13.95;;
60665;SDS011;59128;44.642;21.188;2023-03-01T02:27:01;21.00;;;16.50;;
60665;SDS011;59128;44.642;21.188;2023-03-01T02:29:27;21.08;;;17.10;;
60665;SDS011;59128;44.642;21.188;2023-03-01T02:31:54;21.02;;;16.42;;
60665;SDS011;59128;44.642;21.188;2023-03-01T02:34:23;23.40;;;18.00;;
60665;SDS011;59128;44.642;21.188;2023-03-01T02:39:22;26.75;;;19.50;;
60665;SDS011;59128;44.642;21.188;2023-03-01T02:41:51;27.35;;;20.35;;
60665;SDS011;59128;44.642;21.188;2023-03-01T02:44:17;27.38;;;22.35;;
60665;SDS011;59128;44.642;21.188;2023-03-01T02:46:45;30.63;;;22.83;;
60665;SDS011;59128;44.642;21.188;2023-03-01T02:49:19;28.50;;;22.50;;
60665;SDS011;59128;44.642;21.188;2023-03-01T02:52:08;31.67;;;24.50;;
60665;SDS011;59128;44.642;21.188;2023-03-01T02:57:00;31.15;;;24.60;;
60665;SDS011;59128;44.642;21.188;2023-03-01T02:59:29;31.60;;;24.73;;
60665;SDS011;59128;44.642;21.188;2023-03-01T03:01:56;30.67;;;24.53;;
60665;SDS011;59128;44.642;21.188;2023-03-01T03:04:22;31.85;;;25.08;;
60665;SDS011;59128;44.642;21.188;2023-03-01T03:06:49;30.10;;;24.30;;
60665;SDS011;59128;44.642;21.188;2023-03-01T03:09:16;29.83;;;23.83;;
60665;SDS011;59128;44.642;21.188;2023-03-01T03:11:42;28.92;;;22.83;;
60665;SDS011;59128;44.642;21.188;2023-03-01T03:14:12;26.40;;;22.00;;
60665;SDS011;59128;44.642;21.188;2023-03-01T03:16:46;26.10;;;22.03;;
60665;SDS011;59128;44.642;21.188;2023-03-01T03:19:13;23.70;;;20.13;;
60665;SDS011;59128;44.642;21.188;2023-03-01T03:21:39;24.20;;;20.55;;
60665;SDS011;59128;44.642;21.188;2023-03-01T03:24:05;26.65;;;21.33;;
60665;SDS011;59128;44.642;21.188;2023-03-01T03:26:31;23.00;;;20.10;;
60665;SDS011;59128;44.642;21.188;2023-03-01T03:28:57;22.52;;;18.67;;
60665;SDS011;59128;44.642;21.188;2023-03-01T03:31:23;28.70;;;22.58;;
60665;SDS011;59128;44.642;21.188;2023-03-01T03:33:50;31.85;;;24.77;;
60665;SDS011;59128;44.642;21.188;2023-03-01T03:36:20;28.73;;;21.00;;
60665;SDS011;59128;44.642;21.188;2023-03-01T03:38:46;26.77;;;20.90;;
60665;SDS011;59128;44.642;21.188;2023-03-01T03:41:13;18.85;;;15.45;;
60665;SDS011;59128;44.642;21.188;2023-03-01T03:43:40;11.00;;;8.65;;
60665;SDS011;59128;44.642;21.188;2023-03-01T03:46:07;13.85;;;12.32;;
60665;SDS011;59128;44.642;21.188;2023-03-01T03:48:43;11.73;;;9.90;;
60665;SDS011;59128;44.642;21.188;2023-03-01T03:51:10;11.48;;;9.23;;
60665;SDS011;59128;44.642;21.188;2023-03-01T03:53:37;5.88;;;5.13;;
60665;SDS011;59128;44.642;21.188;2023-03-01T03:56:03;10.10;;;9.10;;
60665;SDS011;59128;44.642;21.188;2023-03-01T03:58:29;6.97;;;6.28;;
60665;SDS011;59128;44.642;21.188;2023-03-01T04:00:56;6.80;;;5.22;;
60665;SDS011;59128;44.642;21.188;2023-03-01T04:03:22;6.05;;;5.45;;
60665;SDS011;59128;44.642;21.188;2023-03-01T04:05:49;5.93;;;5.32;;
60665;SDS011;59128;44.642;21.188;2023-03-01T04:08:15;9.47;;;8.40;;
60665;SDS011;59128;44.642;21.188;2023-03-01T04:10:45;8.30;;;6.53;;
60665;SDS011;59128;44.642;21.188;2023-03-01T04:13:13;6.10;;;5.47;;
60665;SDS011;59128;44.642;21.188;2023-03-01T04:15:39;8.38;;;6.55;;
60665;SDS011;59128;44.642;21.188;2023-03-01T04:18:05;7.40;;;6.60;;
60665;SDS011;59128;44.642;21.188;2023-03-01T04:20:33;7.57;;;6.40;;
60665;SDS011;59128;44.642;21.188;2023-03-01T04:28:23;7.03;;;5.88;;
60665;SDS011;59128;44.642;21.188;2023-03-01T04:30:52;9.38;;;7.20;;
60665;SDS011;59128;44.642;21.188;2023-03-01T04:33:19;5.68;;;5.07;;
60665;SDS011;59128;44.642;21.188;2023-03-01T04:35:45;6.47;;;5.87;;
60665;SDS011;59128;44.642;21.188;2023-03-01T04:38:14;8.00;;;6.23;;
60665;SDS011;59128;44.642;21.188;2023-03-01T04:40:40;7.43;;;6.50;;
60665;SDS011;59128;44.642;21.188;2023-03-01T04:43:08;11.27;;;8.75;;
60665;SDS011;59128;44.642;21.188;2023-03-01T04:45:34;9.85;;;8.00;;
60665;SDS011;59128;44.642;21.188;2023-03-01T04:48:00;6.78;;;6.00;;
60665;SDS011;59128;44.642;21.188;2023-03-01T04:50:26;7.00;;;5.97;;
60665;SDS011;59128;44.642;21.188;2023-03-01T04:52:52;5.28;;;4.78;;
60665;SDS011;59128;44.642;21.188;2023-03-01T04:55:19;6.10;;;5.15;;
60665;SDS011;59128;44.642;21.188;2023-03-01T04:57:45;5.90;;;5.30;;
60665;SDS011;59128;44.642;21.188;2023-03-01T05:00:12;8.38;;;7.53;;
60665;SDS011;59128;44.642;21.188;2023-03-01T05:02:55;7.70;;;6.43;;
60665;SDS011;59128;44.642;21.188;2023-03-01T05:05:22;6.05;;;5.45;;
60665;SDS011;59128;44.642;21.188;2023-03-01T05:07:50;10.45;;;8.35;;
60665;SDS011;59128;44.642;21.188;2023-03-01T05:10:16;9.95;;;8.00;;
60665;SDS011;59128;44.642;21.188;2023-03-01T05:12:42;14.15;;;11.05;;
60665;SDS011;59128;44.642;21.188;2023-03-01T05:15:08;9.13;;;7.47;;
60665;SDS011;59128;44.642;21.188;2023-03-01T05:17:35;7.20;;;6.15;;
60665;SDS011;59128;44.642;21.188;2023-03-01T05:20:01;8.43;;;6.40;;
60665;SDS011;59128;44.642;21.188;2023-03-01T05:22:31;9.15;;;7.55;;
60665;SDS011;59128;44.642;21.188;2023-03-01T05:24:57;10.13;;;8.00;;
60665;SDS011;59128;44.642;21.188;2023-03-01T05:27:23;11.73;;;9.68;;
60665;SDS011;59128;44.642;21.188;2023-03-01T05:29:49;86.57;;;57.70;;
60665;SDS011;59128;44.642;21.188;2023-03-01T05:32:15;25.80;;;18.90;;
60665;SDS011;59128;44.642;21.188;2023-03-01T05:34:41;10.90;;;9.18;;
60665;SDS011;59128;44.642;21.188;2023-03-01T05:37:07;9.63;;;8.38;;
60665;SDS011;59128;44.642;21.188;2023-03-01T05:39:33;12.60;;;10.65;;
60665;SDS011;59128;44.642;21.188;2023-03-01T05:42:00;13.50;;;10.50;;
60665;SDS011;59128;44.642;21.188;2023-03-01T05:44:27;18.30;;;12.48;;
60665;SDS011;59128;44.642;21.188;2023-03-01T05:46:53;10.95;;;9.13;;
60665;SDS011;59128;44.642;21.188;2023-03-01T05:49:20;16.60;;;13.57;;
60665;SDS011;59128;44.642;21.188;2023-03-01T05:51:49;12.38;;;10.55;;
60665;SDS011;59128;44.642;21.188;2023-03-01T05:54:16;9.07;;;7.50;;
60665;SDS011;59128;44.642;21.188;2023-03-01T05:56:42;8.30;;;6.85;;
60665;SDS011;59128;44.642;21.188;2023-03-01T05:59:08;8.00;;;6.70;;
60665;SDS011;59128;44.642;21.188;2023-03-01T06:01:35;6.60;;;5.82;;
60665;SDS011;59128;44.642;21.188;2023-03-01T06:04:01;7.10;;;6.00;;
60665;SDS011;59128;44.642;21.188;2023-03-01T06:06:27;6.72;;;6.05;;
60665;SDS011;59128;44.642;21.188;2023-03-01T06:08:53;7.63;;;6.57;;
60665;SDS011;59128;44.642;21.188;2023-03-01T06:11:20;9.10;;;6.97;;
60665;SDS011;59128;44.642;21.188;2023-03-01T06:13:46;11.10;;;8.50;;
60665;SDS011;59128;44.642;21.188;2023-03-01T06:16:13;16.60;;;12.60;;
60665;SDS011;59128;44.642;21.188;2023-03-01T06:18:39;14.65;;;12.25;;
60665;SDS011;59128;44.642;21.188;2023-03-01T06:21:06;13.02;;;9.65;;
60665;SDS011;59128;44.642;21.188;2023-03-01T06:23:32;14.00;;;10.98;;
60665;SDS011;59128;44.642;21.188;2023-03-01T06:25:58;14.23;;;11.45;;
60665;SDS011;59128;44.642;21.188;2023-03-01T06:28:25;10.88;;;8.98;;
60665;SDS011;59128;44.642;21.188;2023-03-01T06:30:51;12.52;;;9.32;;
60665;SDS011;59128;44.642;21.188;2023-03-01T06:33:17;10.40;;;8.90;;
60665;SDS011;59128;44.642;21.188;2023-03-01T06:35:45;14.57;;;11.70;;
60665;SDS011;59128;44.642;21.188;2023-03-01T06:38:11;16.88;;;11.80;;
60665;SDS011;59128;44.642;21.188;2023-03-01T06:40:40;23.17;;;16.80;;
60665;SDS011;59128;44.642;21.188;2023-03-01T06:43:06;15.95;;;12.52;;
60665;SDS011;59128;44.642;21.188;2023-03-01T06:45:32;15.10;;;12.25;;
60665;SDS011;59128;44.642;21.188;2023-03-01T06:48:05;15.93;;;12.43;;
60665;SDS011;59128;44.642;21.188;2023-03-01T06:50:32;15.43;;;11.93;;
60665;SDS011;59128;44.642;21.188;2023-03-01T06:52:58;13.20;;;9.10;;
60665;SDS011;59128;44.642;21.188;2023-03-01T06:55:25;20.98;;;17.75;;
60665;SDS011;59128;44.642;21.188;2023-03-01T06:57:54;21.52;;;18.73;;
60665;SDS011;59128;44.642;21.188;2023-03-01T07:00:21;18.30;;;14.43;;
60665;SDS011;59128;44.642;21.188;2023-03-01T07:02:47;17.38;;;15.57;;
60665;SDS011;59128;44.642;21.188;2023-03-01T07:05:13;15.57;;;12.67;;
60665;SDS011;59128;44.642;21.188;2023-03-01T07:07:39;11.30;;;10.13;;
60665;SDS011;59128;44.642;21.188;2023-03-01T07:10:05;9.48;;;8.57;;
60665;SDS011;59128;44.642;21.188;2023-03-01T07:12:32;16.48;;;14.80;;
60665;SDS011;59128;44.642;21.188;2023-03-01T07:14:58;9.57;;;8.02;;
60665;SDS011;59128;44.642;21.188;2023-03-01T07:17:24;7.35;;;6.15;;
60665;SDS011;59128;44.642;21.188;2023-03-01T07:19:50;8.43;;;6.78;;
60665;SDS011;59128;44.642;21.188;2023-03-01T07:22:16;7.93;;;6.78;;
60665;SDS011;59128;44.642;21.188;2023-03-01T07:24:42;8.13;;;7.03;;
60665;SDS011;59128;44.642;21.188;2023-03-01T07:27:09;10.18;;;7.85;;
60665;SDS011;59128;44.642;21.188;2023-03-01T07:29:35;9.15;;;6.93;;
60665;SDS011;59128;44.642;21.188;2023-03-01T07:32:04;9.95;;;7.85;;
60665;SDS011;59128;44.642;21.188;2023-03-01T07:34:31;18.25;;;14.32;;
60665;SDS011;59128;44.642;21.188;2023-03-01T07:36:57;7.47;;;6.10;;
60665;SDS011;59128;44.642;21.188;2023-03-01T07:39:23;9.10;;;7.00;;
60665;SDS011;59128;44.642;21.188;2023-03-01T07:41:49;12.38;;;9.73;;
60665;SDS011;59128;44.642;21.188;2023-03-01T07:44:15;8.70;;;6.78;;
60665;SDS011;59128;44.642;21.188;2023-03-01T07:46:42;14.32;;;12.80;;
60665;SDS011;59128;44.642;21.188;2023-03-01T07:49:08;13.50;;;9.90;;
60665;SDS011;59128;44.642;21.188;2023-03-01T07:51:34;7.10;;;6.40;;
60665;SDS011;59128;44.642;21.188;2023-03-01T07:54:00;15.48;;;8.65;;
60665;SDS011;59128;44.642;21.188;2023-03-01T07:56:26;10.23;;;7.10;;
60665;SDS011;59128;44.642;21.188;2023-03-01T07:58:52;7.75;;;5.68;;
60665;SDS011;59128;44.642;21.188;2023-03-01T08:01:19;4.72;;;4.22;;
60665;SDS011;59128;44.642;21.188;2023-03-01T08:03:45;7.28;;;5.75;;
60665;SDS011;59128;44.642;21.188;2023-03-01T08:06:12;5.45;;;4.35;;
60665;SDS011;59128;44.642;21.188;2023-03-01T08:08:38;9.65;;;6.90;;
60665;SDS011;59128;44.642;21.188;2023-03-01T08:11:05;6.43;;;5.15;;
60665;SDS011;59128;44.642;21.188;2023-03-01T08:13:32;5.15;;;4.25;;
60665;SDS011;59128;44.642;21.188;2023-03-01T08:16:01;11.93;;;8.82;;
60665;SDS011;59128;44.642;21.188;2023-03-01T08:18:29;12.02;;;9.32;;
60665;SDS011;59128;44.642;21.188;2023-03-01T08:20:55;11.57;;;8.60;;
60665;SDS011;59128;44.642;21.188;2023-03-01T08:23:21;5.83;;;4.47;;
60665;SDS011;59128;44.642;21.188;2023-03-01T08:25:47;6.72;;;5.30;;
60665;SDS011;59128;44.642;21.188;2023-03-01T08:28:13;4.95;;;3.92;;
60665;SDS011;59128;44.642;21.188;2023-03-01T08:30:39;4.67;;;4.07;;
60665;SDS011;59128;44.642;21.188;2023-03-01T08:33:05;8.77;;;7.88;;
60665;SDS011;59128;44.642;21.188;2023-03-01T08:35:31;4.57;;;3.50;;
60665;SDS011;59128;44.642;21.188;2023-03-01T08:37:57;11.43;;;7.67;;
60665;SDS011;59128;44.642;21.188;2023-03-01T08:40:23;24.45;;;17.65;;
60665;SDS011;59128;44.642;21.188;2023-03-01T08:42:49;11.93;;;9.23;;
60665;SDS011;59128;44.642;21.188;2023-03-01T08:45:15;45.38;;;28.60;;
60665;SDS011;59128;44.642;21.188;2023-03-01T08:47:43;26.90;;;17.83;;
60665;SDS011;59128;44.642;21.188;2023-03-01T08:50:10;40.50;;;25.83;;
60665;SDS011;59128;44.642;21.188;2023-03-01T08:52:36;43.73;;;27.97;;
60665;SDS011;59128;44.642;21.188;2023-03-01T08:55:02;35.40;;;22.17;;
60665;SDS011;59128;44.642;21.188;2023-03-01T08:57:28;41.33;;;26.23;;
60665;SDS011;59128;44.642;21.188;2023-03-01T08:59:54;28.40;;;17.93;;
60665;SDS011;59128;44.642;21.188;2023-03-01T09:02:21;7.55;;;6.28;;
60665;SDS011;59128;44.642;21.188;2023-03-01T09:04:47;21.33;;;14.80;;
60665;SDS011;59128;44.642;21.188;2023-03-01T09:07:13;47.00;;;33.42;;
60665;SDS011;59128;44.642;21.188;2023-03-01T09:09:39;22.55;;;15.05;;
60665;SDS011;59128;44.642;21.188;2023-03-01T09:12:05;21.33;;;14.27;;
60665;SDS011;59128;44.642;21.188;2023-03-01T09:14:31;14.48;;;10.07;;
60665;SDS011;59128;44.642;21.188;2023-03-01T09:16:57;8.20;;;6.33;;
60665;SDS011;59128;44.642;21.188;2023-03-01T09:19:27;40.17;;;25.58;;
60665;SDS011;59128;44.642;21.188;2023-03-01T09:21:53;10.27;;;7.13;;
60665;SDS011;59128;44.642;21.188;2023-03-01T09:24:21;24.75;;;16.15;;
60665;SDS011;59128;44.642;21.188;2023-03-01T09:26:47;14.35;;;10.60;;
60665;SDS011;59128;44.642;21.188;2023-03-01T09:29:14;15.90;;;11.40;;
60665;SDS011;59128;44.642;21.188;2023-03-01T09:31:40;9.80;;;8.15;;
60665;SDS011;59128;44.642;21.188;2023-03-01T09:34:07;14.63;;;12.20;;
60665;SDS011;59128;44.642;21.188;2023-03-01T09:36:33;9.75;;;8.23;;
60665;SDS011;59128;44.642;21.188;2023-03-01T09:38:59;6.50;;;5.57;;
60665;SDS011;59128;44.642;21.188;2023-03-01T09:41:30;7.25;;;5.40;;
60665;SDS011;59128;44.642;21.188;2023-03-01T09:44:00;6.03;;;4.32;;
60665;SDS011;59128;44.642;21.188;2023-03-01T09:46:29;5.90;;;4.80;;
60665;SDS011;59128;44.642;21.188;2023-03-01T09:48:58;5.20;;;3.97;;
60665;SDS011;59128;44.642;21.188;2023-03-01T09:51:31;9.43;;;7.07;;
60665;SDS011;59128;44.642;21.188;2023-03-01T09:53:57;8.95;;;7.30;;
60665;SDS011;59128;44.642;21.188;2023-03-01T09:56:42;7.63;;;6.20;;
60665;SDS011;59128;44.642;21.188;2023-03-01T10:07:34;5.72;;;5.18;;
60665;SDS011;59128;44.642;21.188;2023-03-01T10:09:33;5.45;;;4.47;;
60665;SDS011;59128;44.642;21.188;2023-03-01T10:12:00;4.60;;;4.20;;
60665;SDS011;59128;44.642;21.188;2023-03-01T10:14:32;4.15;;;3.75;;
60665;SDS011;59128;44.642;21.188;2023-03-01T10:17:02;4.20;;;3.47;;
60665;SDS011;59128;44.642;21.188;2023-03-01T10:19:39;4.95;;;3.50;;
60665;SDS011;59128;44.642;21.188;2023-03-01T10:22:20;6.53;;;5.82;;
60665;SDS011;59128;44.642;21.188;2023-03-01T10:24:46;6.87;;;5.73;;
60665;SDS011;59128;44.642;21.188;2023-03-01T10:32:59;4.65;;;4.22;;
60665;SDS011;59128;44.642;21.188;2023-03-01T10:35:26;5.60;;;5.07;;
60665;SDS011;59128;44.642;21.188;2023-03-01T10:38:09;7.15;;;6.20;;
60665;SDS011;59128;44.642;21.188;2023-03-01T10:40:36;5.13;;;4.55;;
60665;SDS011;59128;44.642;21.188;2023-03-01T10:43:05;8.15;;;6.43;;
60665;SDS011;59128;44.642;21.188;2023-03-01T10:45:34;11.80;;;10.52;;
60665;SDS011;59128;44.642;21.188;2023-03-01T10:50:29;7.40;;;6.70;;
60665;SDS011;59128;44.642;21.188;2023-03-01T10:52:57;8.52;;;7.25;;
60665;SDS011;59128;44.642;21.188;2023-03-01T10:57:50;5.38;;;4.80;;
60665;SDS011;59128;44.642;21.188;2023-03-01T11:00:31;5.70;;;4.45;;
60665;SDS011;59128;44.642;21.188;2023-03-01T11:05:24;7.57;;;6.10;;
60665;SDS011;59128;44.642;21.188;2023-03-01T11:10:24;10.30;;;8.07;;
60665;SDS011;59128;44.642;21.188;2023-03-01T11:12:51;8.23;;;7.30;;
60665;SDS011;59128;44.642;21.188;2023-03-01T11:15:22;7.10;;;5.55;;
60665;SDS011;59128;44.642;21.188;2023-03-01T11:17:49;9.57;;;7.80;;
60665;SDS011;59128;44.642;21.188;2023-03-01T11:20:18;9.43;;;7.75;;
60665;SDS011;59128;44.642;21.188;2023-03-01T11:25:15;11.20;;;8.90;;
60665;SDS011;59128;44.642;21.188;2023-03-01T11:27:43;9.50;;;7.72;;
60665;SDS011;59128;44.642;21.188;2023-03-01T11:32:47;8.35;;;7.18;;
60665;SDS011;59128;44.642;21.188;2023-03-01T11:35:18;13.00;;;9.88;;
60665;SDS011;59128;44.642;21.188;2023-03-01T11:40:30;46.28;;;32.90;;
60665;SDS011;59128;44.642;21.188;2023-03-01T11:43:06;40.58;;;29.48;;
60665;SDS011;59128;44.642;21.188;2023-03-01T11:45:39;23.05;;;18.98;;
60665;SDS011;59128;44.642;21.188;2023-03-01T11:50:42;24.33;;;20.25;;
60665;SDS011;59128;44.642;21.188;2023-03-01T11:53:18;11.30;;;10.10;;
60665;SDS011;59128;44.642;21.188;2023-03-01T12:13:58;6.43;;;5.82;;
60665;SDS011;59128;44.642;21.188;2023-03-01T12:31:39;9.60;;;7.97;;
60665;SDS011;59128;44.642;21.188;2023-03-01T12:34:21;9.75;;;8.70;;
60665;SDS011;59128;44.642;21.188;2023-03-01T12:37:00;15.32;;;12.27;;
60665;SDS011;59128;44.642;21.188;2023-03-01T12:42:01;8.80;;;7.63;;
60665;SDS011;59128;44.642;21.188;2023-03-01T12:44:35;9.70;;;8.70;;
60665;SDS011;59128;44.642;21.188;2023-03-01T12:49:36;9.93;;;8.85;;
60665;SDS011;59128;44.642;21.188;2023-03-01T12:52:09;10.82;;;9.57;;
60665;SDS011;59128;44.642;21.188;2023-03-01T12:54:37;11.35;;;10.15;;
60665;SDS011;59128;44.642;21.188;2023-03-01T12:57:25;10.02;;;9.02;;
60665;SDS011;59128;44.642;21.188;2023-03-01T13:00:05;16.40;;;14.30;;
60665;SDS011;59128;44.642;21.188;2023-03-01T13:10:51;13.18;;;11.77;;
60665;SDS011;59128;44.642;21.188;2023-03-01T13:13:23;11.60;;;10.40;;
60665;SDS011;59128;44.642;21.188;2023-03-01T13:15:49;12.85;;;10.70;;
60665;SDS011;59128;44.642;21.188;2023-03-01T13:20:48;13.77;;;12.32;;
60665;SDS011;59128;44.642;21.188;2023-03-01T13:25:59;13.98;;;10.98;;
60665;SDS011;59128;44.642;21.188;2023-03-01T13:39:02;13.53;;;12.10;;
60665;SDS011;59128;44.642;21.188;2023-03-01T13:46:38;14.55;;;12.68;;
60665;SDS011;59128;44.642;21.188;2023-03-01T13:49:09;14.07;;;12.57;;
60665;SDS011;59128;44.642;21.188;2023-03-01T13:51:37;15.45;;;13.82;;
60665;SDS011;59128;44.642;21.188;2023-03-01T13:54:03;11.80;;;10.57;;
60665;SDS011;59128;44.642;21.188;2023-03-01T13:56:33;13.23;;;10.98;;
60665;SDS011;59128;44.642;21.188;2023-03-01T13:59:02;11.82;;;10.63;;
60665;SDS011;59128;44.642;21.188;2023-03-01T14:01:31;13.07;;;11.38;;
60665;SDS011;59128;44.642;21.188;2023-03-01T14:03:57;14.63;;;12.13;;
60665;SDS011;59128;44.642;21.188;2023-03-01T14:06:25;17.77;;;14.60;;
60665;SDS011;59128;44.642;21.188;2023-03-01T14:09:00;16.70;;;13.77;;
60665;SDS011;59128;44.642;21.188;2023-03-01T14:16:45;15.35;;;12.73;;
60665;SDS011;59128;44.642;21.188;2023-03-01T14:19:19;17.95;;;13.60;;
60665;SDS011;59128;44.642;21.188;2023-03-01T14:21:58;16.38;;;12.05;;
60665;SDS011;59128;44.642;21.188;2023-03-01T14:24:25;14.95;;;12.25;;
60665;SDS011;59128;44.642;21.188;2023-03-01T14:26:52;21.38;;;15.68;;
60665;SDS011;59128;44.642;21.188;2023-03-01T14:29:25;15.32;;;12.45;;
60665;SDS011;59128;44.642;21.188;2023-03-01T14:31:51;15.93;;;12.57;;
60665;SDS011;59128;44.642;21.188;2023-03-01T14:34:21;16.85;;;13.68;;
60665;SDS011;59128;44.642;21.188;2023-03-01T14:36:48;19.40;;;14.00;;
60665;SDS011;59128;44.642;21.188;2023-03-01T14:39:18;14.55;;;12.20;;
60665;SDS011;59128;44.642;21.188;2023-03-01T14:41:44;19.57;;;15.93;;
60665;SDS011;59128;44.642;21.188;2023-03-01T14:44:15;16.80;;;12.35;;
60665;SDS011;59128;44.642;21.188;2023-03-01T14:46:43;16.90;;;13.27;;
60665;SDS011;59128;44.642;21.188;2023-03-01T14:49:19;16.73;;;13.40;;
60665;SDS011;59128;44.642;21.188;2023-03-01T14:51:53;23.02;;;16.83;;
60665;SDS011;59128;44.642;21.188;2023-03-01T14:54:22;22.63;;;17.17;;
60665;SDS011;59128;44.642;21.188;2023-03-01T14:56:50;22.02;;;15.95;;
60665;SDS011;59128;44.642;21.188;2023-03-01T14:59:18;24.57;;;17.60;;
60665;SDS011;59128;44.642;21.188;2023-03-01T15:01:45;36.10;;;23.95;;
60665;SDS011;59128;44.642;21.188;2023-03-01T15:04:12;23.90;;;17.08;;
60665;SDS011;59128;44.642;21.188;2023-03-01T15:06:38;18.80;;;13.20;;
60665;SDS011;59128;44.642;21.188;2023-03-01T15:09:05;24.98;;;17.70;;
60665;SDS011;59128;44.642;21.188;2023-03-01T15:11:31;22.30;;;16.23;;
60665;SDS011;59128;44.642;21.188;2023-03-01T15:13:58;16.85;;;12.40;;
60665;SDS011;59128;44.642;21.188;2023-03-01T15:16:25;17.80;;;12.97;;
60665;SDS011;59128;44.642;21.188;2023-03-01T15:21:19;26.90;;;19.42;;
60665;SDS011;59128;44.642;21.188;2023-03-01T15:23:48;15.30;;;12.00;;
60665;SDS011;59128;44.642;21.188;2023-03-01T15:26:25;16.92;;;12.95;;
60665;SDS011;59128;44.642;21.188;2023-03-01T15:28:53;34.22;;;23.80;;
60665;SDS011;59128;44.642;21.188;2023-03-01T15:31:24;21.83;;;17.20;;
60665;SDS011;59128;44.642;21.188;2023-03-01T15:33:50;15.85;;;12.32;;
60665;SDS011;59128;44.642;21.188;2023-03-01T15:39:02;17.48;;;14.52;;
60665;SDS011;59128;44.642;21.188;2023-03-01T15:41:32;14.35;;;12.18;;
60665;SDS011;59128;44.642;21.188;2023-03-01T15:43:59;16.00;;;11.80;;
60665;SDS011;59128;44.642;21.188;2023-03-01T15:48:58;16.98;;;13.45;;
60665;SDS011;59128;44.642;21.188;2023-03-01T15:51:29;15.90;;;13.02;;
60665;SDS011;59128;44.642;21.188;2023-03-01T15:53:55;18.73;;;15.20;;
60665;SDS011;59128;44.642;21.188;2023-03-01T15:56:23;18.90;;;15.40;;
60665;SDS011;59128;44.642;21.188;2023-03-01T15:58:49;15.57;;;12.13;;
60665;SDS011;59128;44.642;21.188;2023-03-01T16:01:15;17.58;;;14.50;;
60665;SDS011;59128;44.642;21.188;2023-03-01T16:03:42;27.83;;;18.53;;
60665;SDS011;59128;44.642;21.188;2023-03-01T16:06:09;22.55;;;18.58;;
60665;SDS011;59128;44.642;21.188;2023-03-01T16:08:36;22.17;;;18.77;;
60665;SDS011;59128;44.642;21.188;2023-03-01T16:11:02;16.67;;;13.83;;
60665;SDS011;59128;44.642;21.188;2023-03-01T16:13:30;26.75;;;19.33;;
60665;SDS011;59128;44.642;21.188;2023-03-01T16:15:56;24.83;;;18.45;;
60665;SDS011;59128;44.642;21.188;2023-03-01T16:18:22;27.48;;;21.67;;
60665;SDS011;59128;44.642;21.188;2023-03-01T16:20:49;24.53;;;19.80;;
60665;SDS011;59128;44.642;21.188;2023-03-01T16:23:15;28.98;;;20.58;;
60665;SDS011;59128;44.642;21.188;2023-03-01T16:25:41;41.03;;;28.30;;
60665;SDS011;59128;44.642;21.188;2023-03-01T16:28:07;24.02;;;19.02;;
60665;SDS011;59128;44.642;21.188;2023-03-01T16:30:36;27.20;;;20.42;;